createdAt,value
2023-01-15T00:00:31.644Z,7.10
2023-01-15T00:03:16.297Z,7.10
2023-01-15T00:05:54.656Z,7.10
2023-01-15T00:08:32.779Z,7.10
2023-01-15T00:11:11.587Z,7.10
2023-01-15T00:13:55.385Z,7.10
2023-01-15T00:16:36.796Z,7.10
2023-01-15T00:19:09.238Z,7.10
2023-01-15T00:21:45.877Z,7.10
2023-01-15T00:24:47.157Z,7.10
2023-01-15T00:28:01.825Z,7.10
2023-01-15T00:30:37.200Z,7.10
2023-01-15T00:33:21.122Z,7.10
2023-01-15T00:36:07.565Z,7.10
2023-01-15T00:38:47.214Z,7.00
2023-01-15T00:41:22.012Z,7.10
2023-01-15T00:43:53.294Z,7.00
2023-01-15T00:46:41.131Z,7.00
2023-01-15T00:49:21.884Z,7.00
2023-01-15T00:51:54.339Z,7.00
2023-01-15T00:54:44.615Z,7.00
2023-01-15T00:57:17.883Z,7.00
2023-01-15T00:59:47.768Z,7.00
2023-01-15T01:02:21.155Z,6.90
2023-01-15T01:05:42.898Z,6.90
2023-01-15T01:08:23.926Z,6.90
2023-01-15T01:11:09.096Z,6.90
2023-01-15T01:16:44.604Z,6.90
2023-01-15T01:19:25.975Z,6.90
2023-01-15T01:22:04.131Z,6.90
2023-01-15T01:24:38.266Z,6.90
2023-01-15T01:27:12.580Z,6.80
2023-01-15T01:29:43.672Z,6.90
2023-01-15T01:32:32.191Z,6.80
2023-01-15T01:35:08.043Z,6.80
2023-01-15T01:37:40.451Z,6.70
2023-01-15T01:40:36.719Z,6.70
2023-01-15T01:43:09.813Z,6.70
2023-01-15T01:45:53.796Z,6.70
2023-01-15T01:48:37.209Z,6.60
2023-01-15T01:51:09.164Z,6.60
2023-01-15T01:53:36.757Z,6.60
2023-01-15T01:56:12.741Z,6.60
2023-01-15T01:59:03.963Z,6.60
2023-01-15T02:01:43.805Z,6.60
2023-01-15T02:04:24.073Z,6.50
2023-01-15T02:07:15.972Z,6.50
2023-01-15T02:09:54.588Z,6.50
2023-01-15T02:12:42.607Z,6.50
2023-01-15T02:15:48.098Z,6.40
2023-01-15T02:18:51.198Z,6.40
2023-01-15T02:21:42.435Z,6.40
2023-01-15T02:24:20.634Z,6.40
2023-01-15T02:27:10.358Z,6.40
2023-01-15T02:30:07.901Z,6.40
2023-01-15T02:33:00.464Z,6.30
2023-01-15T02:35:52.584Z,6.30
2023-01-15T02:38:31.326Z,6.30
2023-01-15T02:41:08.591Z,6.30
2023-01-15T02:43:45.096Z,6.20
2023-01-15T02:46:31.859Z,6.20
2023-01-15T02:49:16.219Z,6.30
2023-01-15T02:52:00.351Z,6.20
2023-01-15T02:54:58.331Z,6.20
2023-01-15T02:57:31.551Z,6.20
2023-01-15T03:00:18.722Z,6.20
2023-01-15T03:03:30.550Z,6.10
2023-01-15T03:06:20.454Z,6.10
2023-01-15T03:08:55.583Z,6.10
2023-01-15T03:11:23.964Z,6.10
2023-01-15T03:14:28.051Z,6.00
2023-01-15T03:20:14.051Z,6.10
2023-01-15T03:23:00.559Z,6.10
2023-01-15T03:25:40.401Z,6.10
2023-01-15T03:28:18.793Z,6.10
2023-01-15T03:30:51.927Z,6.00
2023-01-15T03:33:20.135Z,6.10
2023-01-15T03:36:12.442Z,6.00
2023-01-15T03:38:55.062Z,6.00
2023-01-15T03:42:06.655Z,6.00
2023-01-15T03:45:02.868Z,6.00
2023-01-15T03:48:16.026Z,5.90
2023-01-15T03:50:58.892Z,5.90
2023-01-15T03:53:41.863Z,5.80
2023-01-15T03:56:42.835Z,5.80
2023-01-15T03:59:24.101Z,5.80
2023-01-15T04:02:04.000Z,5.80
2023-01-15T04:04:32.091Z,5.70
2023-01-15T04:07:06.309Z,5.70
2023-01-15T04:09:39.897Z,5.80
2023-01-15T04:12:12.617Z,5.70
2023-01-15T04:14:44.298Z,5.70
2023-01-15T04:17:18.940Z,5.70
2023-01-15T04:19:50.320Z,5.80
2023-01-15T04:22:29.648Z,5.70
2023-01-15T04:25:31.282Z,5.70
2023-01-15T04:28:12.344Z,5.70
2023-01-15T04:30:50.462Z,5.70
2023-01-15T04:33:25.387Z,5.70
2023-01-15T04:36:20.124Z,5.60
2023-01-15T04:38:58.975Z,5.60
2023-01-15T04:41:47.412Z,5.60
2023-01-15T04:44:41.294Z,5.60
2023-01-15T04:47:09.671Z,5.60
2023-01-15T04:49:47.503Z,5.60
2023-01-15T04:52:29.468Z,5.60
2023-01-15T04:55:05.065Z,5.50
2023-01-15T04:57:47.383Z,5.50
2023-01-15T05:00:24.847Z,5.50
2023-01-15T05:03:00.271Z,5.50
2023-01-15T05:06:38.177Z,5.40
2023-01-15T05:09:15.632Z,5.40
2023-01-15T05:12:10.483Z,5.40
2023-01-15T05:14:43.292Z,5.40
2023-01-15T05:17:34.751Z,5.40
2023-01-15T05:20:06.741Z,5.30
2023-01-15T05:22:39.443Z,5.30
2023-01-15T05:25:10.864Z,5.30
2023-01-15T05:27:53.237Z,5.30
2023-01-15T05:30:25.335Z,5.40
2023-01-15T05:32:52.859Z,5.30
2023-01-15T05:35:23.335Z,5.30
2023-01-15T05:38:14.134Z,5.30
2023-01-15T05:40:44.043Z,5.30
2023-01-15T05:43:31.972Z,5.30
2023-01-15T05:46:11.290Z,5.30
2023-01-15T05:49:04.094Z,5.30
2023-01-15T05:51:46.916Z,5.30
2023-01-15T05:54:34.991Z,5.20
2023-01-15T05:57:21.285Z,5.30
2023-01-15T05:59:56.357Z,5.30
2023-01-15T06:02:52.987Z,5.30
2023-01-15T06:05:25.291Z,5.20
2023-01-15T06:07:58.379Z,5.20
2023-01-15T06:10:37.559Z,5.20
2023-01-15T06:13:09.597Z,5.20
2023-01-15T06:15:39.309Z,5.20
2023-01-15T06:18:08.832Z,5.20
2023-01-15T06:20:42.568Z,5.20
2023-01-15T06:23:23.222Z,5.20
2023-01-15T06:25:55.198Z,5.20
2023-01-15T06:28:27.811Z,5.20
2023-01-15T06:31:00.156Z,5.20
2023-01-15T06:34:01.114Z,5.20
2023-01-15T06:36:35.392Z,5.20
2023-01-15T06:39:07.845Z,5.30
2023-01-15T06:42:05.512Z,5.30
2023-01-15T06:45:02.515Z,5.30
2023-01-15T06:47:36.084Z,5.20
2023-01-15T06:50:06.153Z,5.30
2023-01-15T06:52:42.588Z,5.20
2023-01-15T06:55:27.739Z,5.10
2023-01-15T06:58:09.016Z,5.00
2023-01-15T07:00:41.919Z,5.00
2023-01-15T07:03:38.532Z,4.80
2023-01-15T07:06:21.950Z,4.80
2023-01-15T07:09:04.034Z,4.70
2023-01-15T07:11:36.459Z,4.60
2023-01-15T07:14:18.041Z,4.60
2023-01-15T07:17:01.732Z,4.50
2023-01-15T07:19:35.502Z,4.50
2023-01-15T07:22:05.875Z,4.40
2023-01-15T07:24:39.126Z,4.40
2023-01-15T07:27:23.179Z,4.40
2023-01-15T07:29:52.220Z,4.30
2023-01-15T07:32:26.020Z,4.30
2023-01-15T07:35:17.889Z,4.30
2023-01-15T07:38:07.054Z,4.30
2023-01-15T07:41:07.205Z,4.30
2023-01-15T07:43:55.572Z,4.30
2023-01-15T07:46:51.663Z,4.20
2023-01-15T07:49:44.946Z,4.20
2023-01-15T07:52:17.250Z,4.20
2023-01-15T07:54:48.116Z,4.20
2023-01-15T07:57:58.766Z,4.20
2023-01-15T08:00:23.568Z,4.10
2023-01-15T08:02:55.430Z,4.10
2023-01-15T08:05:25.004Z,4.10
2023-01-15T08:07:52.370Z,4.10
2023-01-15T08:10:19.936Z,4.10
2023-01-15T08:13:12.044Z,4.10
2023-01-15T08:15:43.048Z,4.10
2023-01-15T08:18:14.665Z,4.10
2023-01-15T08:21:09.119Z,4.10
2023-01-15T08:23:54.869Z,4.10
2023-01-15T08:26:29.738Z,4.00
2023-01-15T08:29:11.055Z,4.00
2023-01-15T08:31:58.433Z,4.00
2023-01-15T08:34:33.078Z,4.10
2023-01-15T08:37:11.903Z,4.10
2023-01-15T08:39:45.074Z,4.10
2023-01-15T08:43:02.905Z,4.20
2023-01-15T08:45:42.008Z,4.20
2023-01-15T08:48:20.032Z,4.20
2023-01-15T08:51:05.729Z,4.20
2023-01-15T08:53:47.110Z,4.20
2023-01-15T08:56:37.001Z,4.20
2023-01-15T08:59:39.090Z,4.30
2023-01-15T09:02:28.605Z,4.20
2023-01-15T09:05:08.253Z,4.30
2023-01-15T09:07:45.047Z,4.30
2023-01-15T09:10:34.098Z,4.30
2023-01-15T09:13:11.645Z,4.30
2023-01-15T09:15:48.262Z,4.40
2023-01-15T09:18:21.354Z,4.40
2023-01-15T09:21:02.486Z,4.40
2023-01-15T09:23:55.412Z,4.40
2023-01-15T09:26:34.116Z,4.50
2023-01-15T09:29:19.646Z,4.60
2023-01-15T09:32:07.337Z,4.60
2023-01-15T09:34:43.830Z,4.70
2023-01-15T09:37:14.096Z,4.80
2023-01-15T09:39:46.145Z,4.80
2023-01-15T09:42:41.621Z,4.80
2023-01-15T09:45:49.329Z,4.70
2023-01-15T09:49:16.668Z,4.80
2023-01-15T09:52:07.489Z,4.80
2023-01-15T09:55:14.519Z,4.70
2023-01-15T09:57:46.162Z,4.80
2023-01-15T10:00:34.656Z,4.80
2023-01-15T10:03:26.829Z,4.70
2023-01-15T10:06:20.715Z,4.70
2023-01-15T10:09:24.412Z,4.70
2023-01-15T10:12:44.587Z,4.70
2023-01-15T10:15:15.065Z,4.70
2023-01-15T10:17:59.747Z,4.70
2023-01-15T10:21:03.294Z,4.80
2023-01-15T10:23:57.092Z,4.80
2023-01-15T10:26:48.349Z,4.90
2023-01-15T10:30:12.294Z,4.80
2023-01-15T10:33:01.869Z,4.70
2023-01-15T10:35:40.829Z,4.60
2023-01-15T10:38:32.662Z,4.60
2023-01-15T10:41:29.380Z,4.60
2023-01-15T10:44:21.011Z,4.60
2023-01-15T10:47:09.764Z,4.70
2023-01-15T10:49:42.623Z,4.80
2023-01-15T10:52:51.474Z,4.80
2023-01-15T10:55:35.357Z,5.00
2023-01-15T10:58:43.194Z,5.20
2023-01-15T11:01:32.080Z,5.50
2023-01-15T11:04:16.136Z,5.60
2023-01-15T11:06:51.188Z,5.60
2023-01-15T11:09:24.844Z,5.70
2023-01-15T11:12:30.391Z,5.80
2023-01-15T11:15:46.190Z,5.90
2023-01-15T11:18:47.688Z,6.00
2023-01-15T11:21:40.003Z,6.10
2023-01-15T11:24:20.975Z,6.10
2023-01-15T11:27:00.546Z,6.00
2023-01-15T11:29:40.942Z,5.80
2023-01-15T11:32:41.700Z,5.70
2023-01-15T11:35:21.957Z,5.60
2023-01-15T11:38:28.151Z,5.60
2023-01-15T11:41:02.625Z,5.80
2023-01-15T11:44:00.544Z,6.00
2023-01-15T11:47:02.261Z,6.20
2023-01-15T11:49:54.239Z,6.30
2023-01-15T11:52:31.428Z,6.40
2023-01-15T11:55:33.667Z,6.40
2023-01-15T11:58:20.929Z,6.40
2023-01-15T12:01:06.524Z,6.40
2023-01-15T12:03:51.602Z,6.30
2023-01-15T12:06:38.554Z,6.20
2023-01-15T12:09:46.958Z,6.10
2023-01-15T12:16:23.944Z,6.00
2023-01-15T12:19:26.655Z,5.90
2023-01-15T12:22:32.570Z,5.90
2023-01-15T12:25:23.280Z,6.10
2023-01-15T12:28:00.757Z,6.10
2023-01-15T12:31:25.092Z,6.10
2023-01-15T12:34:48.391Z,6.00
2023-01-15T12:37:28.981Z,6.00
2023-01-15T12:40:19.920Z,6.00
2023-01-15T12:43:12.328Z,6.00
2023-01-15T12:45:50.265Z,6.00
2023-01-15T12:48:32.504Z,6.00
2023-01-15T12:51:06.533Z,6.10
2023-01-15T12:54:06.761Z,6.10
2023-01-15T12:57:16.142Z,6.20
2023-01-15T13:00:19.232Z,6.20
2023-01-15T13:03:34.639Z,6.20
2023-01-15T13:06:32.515Z,6.20
2023-01-15T13:10:07.752Z,6.10
2023-01-15T13:12:44.937Z,6.10
2023-01-15T13:15:24.930Z,6.00
2023-01-15T13:19:03.887Z,6.00
2023-01-15T13:21:32.422Z,6.00
2023-01-15T13:25:26.777Z,6.00
2023-01-15T13:28:32.951Z,6.00
2023-01-15T13:31:53.151Z,6.00
2023-01-15T13:34:57.900Z,6.00
2023-01-15T13:38:57.602Z,6.00
2023-01-15T13:42:07.026Z,6.00
2023-01-15T13:44:33.927Z,6.00
2023-01-15T13:47:21.811Z,5.90
2023-01-15T13:50:06.800Z,5.90
2023-01-15T13:52:57.847Z,5.90
2023-01-15T13:55:39.420Z,5.80
2023-01-15T13:59:15.084Z,5.80
2023-01-15T14:01:57.474Z,5.80
2023-01-15T14:05:06.534Z,5.70
2023-01-15T14:07:53.295Z,5.70
2023-01-15T14:10:40.053Z,5.60
2023-01-15T14:14:22.064Z,5.60
2023-01-15T14:17:31.782Z,5.50
2023-01-15T14:20:44.637Z,5.60
2023-01-15T14:23:39.442Z,5.60
2023-01-15T14:26:25.750Z,5.70
2023-01-15T14:30:01.226Z,5.60
2023-01-15T14:33:27.384Z,5.60
2023-01-15T14:35:57.018Z,5.70
2023-01-15T14:38:27.916Z,5.60
2023-01-15T14:41:01.041Z,5.60
2023-01-15T14:43:41.393Z,5.50
2023-01-15T14:46:30.635Z,5.50
2023-01-15T14:48:57.856Z,5.40
2023-01-15T14:51:34.816Z,5.50
2023-01-15T14:54:07.734Z,5.40
2023-01-15T14:56:51.134Z,5.40
2023-01-15T14:59:54.504Z,5.50
2023-01-15T15:02:38.393Z,5.40
2023-01-15T15:05:23.239Z,5.40
2023-01-15T15:08:08.121Z,5.50
2023-01-15T15:10:52.370Z,5.50
2023-01-15T15:13:40.298Z,5.40
2023-01-15T15:17:13.506Z,5.40
2023-01-15T15:19:54.797Z,5.40
2023-01-15T15:22:38.373Z,5.40
2023-01-15T15:25:44.784Z,5.30
2023-01-15T15:28:26.577Z,5.40
2023-01-15T15:31:25.424Z,5.30
2023-01-15T15:34:23.588Z,5.30
2023-01-15T15:37:25.016Z,5.30
2023-01-15T15:40:22.129Z,5.30
2023-01-15T15:43:59.315Z,5.30
2023-01-15T15:46:52.923Z,5.30
2023-01-15T15:49:33.378Z,5.30
2023-01-15T15:52:28.043Z,5.30
2023-01-15T15:55:26.133Z,5.30
2023-01-15T15:58:13.730Z,5.30
2023-01-15T16:00:56.996Z,5.30
2023-01-15T16:03:33.302Z,5.20
2023-01-15T16:06:12.052Z,5.20
2023-01-15T16:09:03.394Z,5.20
2023-01-15T16:11:52.045Z,5.20
2023-01-15T16:14:51.283Z,5.10
2023-01-15T16:17:23.987Z,5.10
2023-01-15T16:19:53.971Z,5.00
2023-01-15T16:22:26.080Z,5.00
2023-01-15T16:25:31.051Z,5.00
2023-01-15T16:28:22.132Z,5.00
2023-01-15T16:31:30.169Z,5.00
2023-01-15T16:34:07.116Z,5.00
2023-01-15T16:36:47.160Z,5.00
2023-01-15T16:39:46.148Z,4.90
2023-01-15T16:42:43.942Z,4.90
2023-01-15T16:45:27.423Z,4.90
2023-01-15T16:48:11.085Z,4.80
2023-01-15T16:50:51.564Z,4.90
2023-01-15T16:53:42.138Z,4.90
2023-01-15T16:56:44.496Z,4.90
2023-01-15T16:59:21.129Z,4.90
2023-01-15T17:01:53.687Z,4.90
2023-01-15T17:04:45.498Z,4.90
2023-01-15T17:07:31.944Z,4.90
2023-01-15T17:10:01.392Z,5.00
2023-01-15T17:12:37.751Z,5.00
2023-01-15T17:15:30.483Z,5.00
2023-01-15T17:18:24.950Z,4.90
2023-01-15T17:21:06.482Z,5.00
2023-01-15T17:24:13.195Z,5.00
2023-01-15T17:26:41.824Z,5.00
2023-01-15T17:29:40.273Z,5.00
2023-01-15T17:32:34.104Z,5.10
2023-01-15T17:35:31.471Z,5.10
2023-01-15T17:38:16.397Z,5.10
2023-01-15T17:41:04.586Z,5.10
2023-01-15T17:43:49.932Z,5.10
2023-01-15T17:46:17.561Z,5.10
2023-01-15T17:48:49.656Z,5.10
2023-01-15T17:51:49.853Z,5.10
2023-01-15T17:54:49.456Z,5.10
2023-01-15T17:57:54.236Z,5.10
2023-01-15T18:00:48.517Z,5.20
2023-01-15T18:03:41.249Z,5.20
2023-01-15T18:06:13.447Z,5.30
2023-01-15T18:08:44.632Z,5.30
2023-01-15T18:11:11.857Z,5.30
2023-01-15T18:13:43.972Z,5.30
2023-01-15T18:16:17.752Z,5.30
2023-01-15T18:18:52.326Z,5.40
2023-01-15T18:21:24.473Z,5.30
2023-01-15T18:23:54.320Z,5.30
2023-01-15T18:26:21.812Z,5.20
2023-01-15T18:29:10.690Z,5.30
2023-01-15T18:31:41.135Z,5.20
2023-01-15T18:34:13.349Z,5.10
2023-01-15T18:36:43.223Z,5.10
2023-01-15T18:39:15.042Z,5.20
2023-01-15T18:41:55.529Z,5.20
2023-01-15T18:44:43.947Z,5.30
2023-01-15T18:47:17.160Z,5.20
2023-01-15T18:49:55.543Z,5.00
2023-01-15T18:52:45.961Z,4.90
2023-01-15T18:55:13.230Z,4.80
2023-01-15T18:57:40.343Z,4.80
2023-01-15T19:00:08.818Z,4.70
2023-01-15T19:02:36.087Z,4.70
2023-01-15T19:05:03.310Z,4.80
2023-01-15T19:07:30.577Z,4.70
2023-01-15T19:09:57.889Z,4.70
2023-01-15T19:12:27.447Z,4.70
2023-01-15T19:15:13.511Z,4.70
2023-01-15T19:18:02.034Z,4.70
2023-01-15T19:20:29.574Z,4.80
2023-01-15T19:23:03.287Z,4.80
2023-01-15T19:25:55.824Z,4.80
2023-01-15T19:28:45.351Z,4.80
2023-01-15T19:31:37.410Z,4.80
2023-01-15T19:34:35.508Z,4.80
2023-01-15T19:37:13.384Z,4.80
2023-01-15T19:39:51.923Z,4.80
2023-01-15T19:42:44.021Z,4.80
2023-01-15T19:45:34.899Z,4.80
2023-01-15T19:48:24.851Z,4.90
2023-01-15T19:51:00.122Z,4.90
2023-01-15T19:53:40.412Z,4.90
2023-01-15T19:56:08.279Z,5.00
2023-01-15T19:58:38.829Z,5.00
2023-01-15T20:01:06.716Z,5.00
2023-01-15T20:03:34.103Z,5.00
2023-01-15T20:06:09.963Z,5.10
2023-01-15T20:08:39.714Z,5.10
2023-01-15T20:11:10.022Z,5.10
2023-01-15T20:13:56.377Z,5.20
2023-01-15T20:16:25.583Z,5.20
2023-01-15T20:18:59.677Z,5.20
2023-01-15T20:21:29.347Z,5.20
2023-01-15T20:24:21.271Z,5.10
2023-01-15T20:27:01.652Z,5.00
2023-01-15T20:29:31.324Z,4.80
2023-01-15T20:32:03.400Z,4.70
2023-01-15T20:35:11.622Z,4.60
2023-01-15T20:37:39.724Z,4.50
2023-01-15T20:40:26.240Z,4.40
2023-01-15T20:43:18.273Z,4.40
2023-01-15T20:45:45.683Z,4.40
2023-01-15T20:48:20.610Z,4.30
2023-01-15T20:51:08.678Z,4.30
2023-01-15T20:53:41.700Z,4.30
2023-01-15T20:56:17.459Z,4.40
2023-01-15T20:58:45.837Z,4.40
2023-01-15T21:01:16.013Z,4.30
2023-01-15T21:03:47.161Z,4.40
2023-01-15T21:06:22.115Z,4.40
2023-01-15T21:08:58.122Z,4.40
2023-01-15T21:11:35.934Z,4.40
2023-01-15T21:14:05.484Z,4.50
2023-01-15T21:16:32.983Z,4.50
2023-01-15T21:19:07.266Z,4.50
2023-01-15T21:21:55.014Z,4.50
2023-01-15T21:24:27.155Z,4.50
2023-01-15T21:27:03.212Z,4.60
2023-01-15T21:29:33.728Z,4.50
2023-01-15T21:32:03.588Z,4.50
2023-01-15T21:34:36.417Z,4.50
2023-01-15T21:37:06.176Z,4.50
2023-01-15T21:39:35.771Z,4.50
2023-01-15T21:42:26.066Z,4.40
2023-01-15T21:44:57.102Z,4.30
2023-01-15T21:47:26.919Z,4.20
2023-01-15T21:50:04.859Z,4.20
2023-01-15T21:52:36.553Z,4.10
2023-01-15T21:55:06.880Z,4.10
2023-01-15T21:57:40.853Z,4.10
2023-01-15T22:00:13.089Z,4.10
2023-01-15T22:02:45.040Z,4.00
2023-01-15T22:05:14.996Z,4.00
2023-01-15T22:07:50.724Z,4.00
2023-01-15T22:10:27.625Z,4.00
2023-01-15T22:13:02.927Z,4.00
2023-01-15T22:15:37.798Z,3.90
2023-01-15T22:18:10.030Z,4.00
2023-01-15T22:20:42.089Z,4.00
2023-01-15T22:23:10.599Z,4.00
2023-01-15T22:25:43.247Z,4.00
2023-01-15T22:28:15.277Z,4.10
2023-01-15T22:30:53.848Z,4.10
2023-01-15T22:33:47.204Z,4.10
2023-01-15T22:36:18.402Z,4.10
2023-01-15T22:38:56.857Z,4.00
2023-01-15T22:41:45.260Z,3.90
2023-01-15T22:44:15.236Z,3.80
2023-01-15T22:46:49.329Z,3.80
2023-01-15T22:49:27.598Z,3.80
2023-01-15T22:52:05.754Z,3.80
2023-01-15T22:54:55.063Z,3.90
2023-01-15T22:57:31.507Z,4.00
2023-01-15T23:00:03.627Z,4.00
2023-01-15T23:02:49.814Z,3.90
2023-01-15T23:05:17.320Z,3.80
2023-01-15T23:07:44.495Z,3.70
2023-01-15T23:10:13.147Z,3.80
2023-01-15T23:12:42.220Z,3.80
2023-01-15T23:15:19.254Z,3.80
2023-01-15T23:17:53.817Z,3.80
2023-01-15T23:20:31.212Z,3.80
2023-01-15T23:23:30.870Z,3.70
2023-01-15T23:25:57.750Z,3.70
2023-01-15T23:28:29.920Z,3.60
2023-01-15T23:30:58.757Z,3.70
2023-01-15T23:33:33.377Z,3.70
2023-01-15T23:36:19.951Z,3.70
2023-01-15T23:39:02.236Z,3.60
2023-01-15T23:41:50.769Z,3.50
2023-01-15T23:44:38.880Z,3.40
2023-01-15T23:47:10.958Z,3.40
2023-01-15T23:49:40.416Z,3.40
2023-01-15T23:52:14.121Z,3.40
2023-01-15T23:54:46.362Z,3.50
2023-01-15T23:57:27.623Z,3.50
